Time;durP1;ratioP1;P1;durP2;ratioP2;P2;SDS_P1;SDS_P2;PMS_P1;PMS_P2;Temp;Humidity;BMP_temperature;BMP_pressure;BME280_temperature;BME280_humidity;BME280_pressure;Samples;Min_cycle;Max_cycle;Signal;HPM_P1;HPM_P2
2022/08/23 00:01:39;;;;;;;3.53;1.80;;;;;;;;;;5034311;28;20037;-84
2022/08/23 00:04:08;;;;;;;3.65;2.00;;;;;;;;;;5033395;28;20022;-84
2022/08/23 00:06:34;;;;;;;3.10;1.80;;;;;;;;;;5034637;28;20044;-84
2022/08/23 00:09:00;;;;;;;4.03;1.90;;;;;;;;;;5033235;28;20402;-84
2022/08/23 00:11:47;;;;;;;2.38;1.95;;;;;;;;;;5033846;28;20053;-84
2022/08/23 00:14:23;;;;;;;5.68;2.00;;;;;;;;;;5032870;28;20449;-84
2022/08/23 00:16:48;;;;;;;4.88;1.80;;;;;;;;;;5033779;28;20045;-84
2022/08/23 00:19:16;;;;;;;5.15;1.90;;;;;;;;;;5034513;28;20038;-83
2022/08/23 00:21:44;;;;;;;4.18;1.83;;;;;;;;;;5034076;28;20033;-84
2022/08/23 00:24:11;;;;;;;2.85;1.70;;;;;;;;;;5038663;28;20022;-83
2022/08/23 00:27:07;;;;;;;2.03;1.60;;;;;;;;;;5034073;28;20089;-83
2022/08/23 00:29:46;;;;;;;3.53;1.80;;;;;;;;;;5032469;28;20029;-83
2022/08/23 00:32:15;;;;;;;2.95;1.60;;;;;;;;;;5032454;28;20094;-83
2022/08/23 00:34:41;;;;;;;3.60;1.90;;;;;;;;;;5032533;28;20136;-83
2022/08/23 00:37:08;;;;;;;5.10;1.77;;;;;;;;;;5034065;28;20095;-83
2022/08/23 00:39:34;;;;;;;4.60;1.90;;;;;;;;;;5033076;28;20036;-83
2022/08/23 00:47:38;;;;;;;4.82;2.00;;;;;;;;;;5032979;28;20124;-83
2022/08/23 00:47:44;;;;;;;2.30;1.73;;;;;;;;;;5032759;28;20048;-84
2022/08/23 00:50:31;;;;;;;3.10;2.00;;;;;;;;;;5034155;28;20084;-84
2022/08/23 00:53:16;;;;;;;3.30;1.92;;;;;;;;;;5032395;28;20124;-84
2022/08/23 00:55:44;;;;;;;3.25;1.77;;;;;;;;;;5033588;28;20498;-83
2022/08/23 00:58:12;;;;;;;2.78;1.90;;;;;;;;;;5034054;28;20112;-84
2022/08/23 01:00:38;;;;;;;2.60;1.75;;;;;;;;;;5032949;28;20021;-84
2022/08/23 01:03:07;;;;;;;3.25;2.00;;;;;;;;;;5032705;28;20037;-84
2022/08/23 01:06:02;;;;;;;3.70;1.90;;;;;;;;;;5033546;28;20029;-83
2022/08/23 01:08:31;;;;;;;4.03;1.90;;;;;;;;;;5027573;28;20079;-83
2022/08/23 01:11:08;;;;;;;3.40;1.90;;;;;;;;;;5037497;28;20589;-83
2022/08/23 01:13:55;;;;;;;2.42;1.83;;;;;;;;;;5036383;28;20045;-83
2022/08/23 01:16:44;;;;;;;2.72;1.90;;;;;;;;;;5035901;28;20562;-83
2022/08/23 01:19:33;;;;;;;2.45;1.90;;;;;;;;;;5037556;28;20478;-83
2022/08/23 01:22:23;;;;;;;2.65;1.90;;;;;;;;;;5019627;28;20033;-83
2022/08/23 01:24:49;;;;;;;2.40;1.80;;;;;;;;;;5024784;28;20057;-83
2022/08/23 01:27:15;;;;;;;2.28;1.67;;;;;;;;;;5036457;28;20800;-82
2022/08/23 01:29:41;;;;;;;3.70;1.75;;;;;;;;;;5036246;28;20044;-83
2022/08/23 01:32:11;;;;;;;3.78;1.90;;;;;;;;;;5036173;28;20057;-84
2022/08/23 01:34:37;;;;;;;2.22;1.80;;;;;;;;;;5035938;28;20033;-83
2022/08/23 01:37:07;;;;;;;2.65;1.70;;;;;;;;;;5037103;28;20099;-84
2022/08/23 01:39:36;;;;;;;3.30;2.13;;;;;;;;;;5037601;28;20037;-84
2022/08/23 01:42:06;;;;;;;2.03;1.67;;;;;;;;;;5019605;28;20033;-84
2022/08/23 01:44:33;;;;;;;3.05;1.90;;;;;;;;;;5037005;28;20030;-83
2022/08/23 01:47:00;;;;;;;3.13;1.80;;;;;;;;;;5035517;28;20040;-83
2022/08/23 01:49:25;;;;;;;2.90;1.60;;;;;;;;;;5035366;28;20063;-83
2022/08/23 01:51:51;;;;;;;3.65;1.92;;;;;;;;;;5035780;28;20037;-83
2022/08/23 01:54:18;;;;;;;3.50;1.70;;;;;;;;;;5035798;28;20038;-83
2022/08/23 01:56:45;;;;;;;5.03;1.77;;;;;;;;;;5035599;28;20456;-83
2022/08/23 01:59:12;;;;;;;4.03;1.90;;;;;;;;;;5035365;28;20038;-83
2022/08/23 02:01:57;;;;;;;2.45;1.77;;;;;;;;;;5021611;28;20124;-83
2022/08/23 02:04:22;;;;;;;2.88;1.60;;;;;;;;;;5034720;28;20049;-83
2022/08/23 02:06:48;;;;;;;3.30;2.00;;;;;;;;;;5035156;28;20056;-83
2022/08/23 02:09:18;;;;;;;3.58;1.90;;;;;;;;;;5035170;28;20033;-83
2022/08/23 02:11:45;;;;;;;2.40;1.70;;;;;;;;;;5035374;28;20044;-83
2022/08/23 02:14:14;;;;;;;2.83;1.70;;;;;;;;;;5034700;28;20099;-83
2022/08/23 02:16:54;;;;;;;3.10;1.92;;;;;;;;;;5034168;28;20030;-83
2022/08/23 02:19:20;;;;;;;3.28;1.70;;;;;;;;;;5035337;28;20468;-83
2022/08/23 02:21:47;;;;;;;3.60;1.80;;;;;;;;;;5036806;28;20057;-83
2022/08/23 02:24:21;;;;;;;3.13;1.90;;;;;;;;;;5036308;28;20093;-83
2022/08/23 02:26:52;;;;;;;4.55;1.92;;;;;;;;;;5036860;28;20065;-83
2022/08/23 02:29:20;;;;;;;3.53;1.77;;;;;;;;;;5018925;28;20391;-83
2022/08/23 02:31:47;;;;;;;3.53;1.70;;;;;;;;;;5034779;28;20041;-83
2022/08/23 02:34:14;;;;;;;2.40;1.70;;;;;;;;;;5035788;28;20076;-83
2022/08/23 02:36:42;;;;;;;2.85;1.90;;;;;;;;;;5035014;28;20034;-83
2022/08/23 02:39:09;;;;;;;2.92;1.70;;;;;;;;;;5034578;28;20033;-83
2022/08/23 02:41:35;;;;;;;5.00;1.75;;;;;;;;;;5034921;28;20075;-84
2022/08/23 02:44:01;;;;;;;2.40;1.90;;;;;;;;;;5034526;28;20549;-84
2022/08/23 02:46:28;;;;;;;1.75;1.60;;;;;;;;;;5036312;28;20544;-84
2022/08/23 02:48:54;;;;;;;2.97;1.77;;;;;;;;;;5034764;28;20038;-84
2022/08/23 02:51:20;;;;;;;5.05;1.80;;;;;;;;;;5034447;28;20034;-83
2022/08/23 02:53:46;;;;;;;2.55;1.65;;;;;;;;;;5034672;28;20038;-83
2022/08/23 02:56:12;;;;;;;3.05;1.75;;;;;;;;;;5034184;28;20056;-83
2022/08/23 02:58:38;;;;;;;3.17;1.70;;;;;;;;;;5034070;28;20449;-83
2022/08/23 03:01:05;;;;;;;2.58;1.70;;;;;;;;;;5034436;28;20034;-83
2022/08/23 03:03:31;;;;;;;3.17;1.55;;;;;;;;;;5033772;28;20509;-83
2022/08/23 03:05:57;;;;;;;5.63;1.90;;;;;;;;;;5034012;28;20040;-83
2022/08/23 03:08:23;;;;;;;4.82;1.80;;;;;;;;;;5035173;28;20033;-83
2022/08/23 03:10:51;;;;;;;3.70;1.60;;;;;;;;;;5034119;28;20506;-83
2022/08/23 03:13:18;;;;;;;3.08;1.88;;;;;;;;;;5033755;28;20034;-83
2022/08/23 03:15:46;;;;;;;2.58;1.80;;;;;;;;;;5034491;28;20045;-83
2022/08/23 03:18:11;;;;;;;3.03;1.70;;;;;;;;;;5034320;28;20030;-83
2022/08/23 03:20:40;;;;;;;3.45;1.70;;;;;;;;;;5034590;28;20060;-83
2022/08/23 03:23:10;;;;;;;2.83;1.80;;;;;;;;;;5034523;28;20053;-83
2022/08/23 03:25:36;;;;;;;3.47;1.88;;;;;;;;;;5033818;28;20409;-83
2022/08/23 03:28:16;;;;;;;3.17;1.75;;;;;;;;;;5018773;28;20148;-83
2022/08/23 03:30:43;;;;;;;4.13;1.75;;;;;;;;;;5033994;28;20030;-83
2022/08/23 03:33:10;;;;;;;2.67;1.80;;;;;;;;;;5033787;28;20441;-83
2022/08/23 03:35:36;;;;;;;2.75;1.70;;;;;;;;;;5017115;28;20524;-83
2022/08/23 03:38:02;;;;;;;2.42;1.80;;;;;;;;;;5033514;28;20040;-82
2022/08/23 03:40:28;;;;;;;4.78;1.70;;;;;;;;;;5033276;28;20060;-83
2022/08/23 03:42:53;;;;;;;5.35;2.67;;;;;;;;;;5033715;28;20033;-83
2022/08/23 03:45:22;;;;;;;2.58;1.80;;;;;;;;;;5017626;28;20044;-83
2022/08/23 03:47:48;;;;;;;3.00;1.90;;;;;;;;;;5033530;28;20037;-83
2022/08/23 03:50:15;;;;;;;3.58;1.83;;;;;;;;;;5017344;28;20029;-83
2022/08/23 03:52:41;;;;;;;3.15;1.80;;;;;;;;;;5033211;28;20041;-83
2022/08/23 03:55:07;;;;;;;3.33;1.90;;;;;;;;;;5033370;28;20398;-83
2022/08/23 03:57:35;;;;;;;3.45;1.70;;;;;;;;;;5032755;28;20107;-83
2022/08/23 04:00:01;;;;;;;4.10;1.88;;;;;;;;;;5033354;28;20037;-83
2022/08/23 04:02:28;;;;;;;4.18;1.70;;;;;;;;;;5034384;28;20025;-83
2022/08/23 04:04:53;;;;;;;2.40;1.88;;;;;;;;;;5032879;28;20029;-83
2022/08/23 04:07:20;;;;;;;2.22;1.90;;;;;;;;;;5034528;28;20017;-83
2022/08/23 04:09:47;;;;;;;3.35;1.80;;;;;;;;;;5032534;28;20049;-83
2022/08/23 04:12:13;;;;;;;8.98;1.90;;;;;;;;;;5033162;28;20069;-83
2022/08/23 04:14:39;;;;;;;2.92;2.15;;;;;;;;;;5032136;28;20045;-83
2022/08/23 04:17:05;;;;;;;5.20;1.75;;;;;;;;;;5016686;28;20029;-83
2022/08/23 04:19:31;;;;;;;2.65;1.90;;;;;;;;;;5032985;28;20033;-83
2022/08/23 04:21:59;;;;;;;4.60;2.20;;;;;;;;;;5032817;28;20037;-83
2022/08/23 04:24:30;;;;;;;2.78;1.90;;;;;;;;;;5032727;28;20036;-83
2022/08/23 04:26:55;;;;;;;4.20;2.00;;;;;;;;;;5032426;28;20037;-83
2022/08/23 04:29:21;;;;;;;4.38;2.05;;;;;;;;;;5032882;28;20110;-83
2022/08/23 04:31:48;;;;;;;5.88;2.00;;;;;;;;;;5033091;28;20112;-83
2022/08/23 04:34:15;;;;;;;7.85;2.30;;;;;;;;;;5032440;28;20455;-83
2022/08/23 04:36:42;;;;;;;3.28;2.30;;;;;;;;;;5032845;28;20041;-83
2022/08/23 04:39:09;;;;;;;2.58;1.80;;;;;;;;;;5033063;28;20463;-82
2022/08/23 04:44:20;;;;;;;2.72;1.90;;;;;;;;;;5036689;28;20476;-83
2022/08/23 04:46:47;;;;;;;5.13;1.98;;;;;;;;;;5036554;28;20041;-83
2022/08/23 04:49:15;;;;;;;3.75;1.88;;;;;;;;;;5036694;28;20124;-83
2022/08/23 04:51:41;;;;;;;2.92;2.00;;;;;;;;;;5036503;28;20037;-83
2022/08/23 04:54:07;;;;;;;4.93;1.90;;;;;;;;;;5037726;28;20036;-83
2022/08/23 04:56:43;;;;;;;2.80;1.90;;;;;;;;;;5036601;28;20501;-83
2022/08/23 04:59:10;;;;;;;3.72;1.95;;;;;;;;;;5036388;28;20041;-83
2022/08/23 05:01:36;;;;;;;2.50;1.90;;;;;;;;;;5036103;28;20057;-83
2022/08/23 05:04:03;;;;;;;2.60;1.80;;;;;;;;;;5036356;28;20052;-83
2022/08/23 05:06:30;;;;;;;2.40;1.80;;;;;;;;;;5036515;28;20102;-83
2022/08/23 05:08:56;;;;;;;4.72;2.03;;;;;;;;;;5037894;28;20498;-83
2022/08/23 05:11:22;;;;;;;5.47;1.90;;;;;;;;;;5036296;28;20057;-83
2022/08/23 05:13:49;;;;;;;3.03;2.00;;;;;;;;;;5037766;28;20029;-83
2022/08/23 05:16:15;;;;;;;2.63;1.98;;;;;;;;;;5037997;28;20409;-83
2022/08/23 05:18:48;;;;;;;4.03;2.10;;;;;;;;;;5037611;28;20038;-83
2022/08/23 05:21:20;;;;;;;3.83;2.30;;;;;;;;;;5035583;28;20037;-83
2022/08/23 05:23:46;;;;;;;3.10;2.10;;;;;;;;;;5035934;28;20501;-83
2022/08/23 05:26:17;;;;;;;4.63;1.98;;;;;;;;;;5035596;28;20080;-83
2022/08/23 05:28:46;;;;;;;3.22;2.00;;;;;;;;;;5035770;28;20142;-83
2022/08/23 05:31:23;;;;;;;3.22;1.85;;;;;;;;;;5035929;28;20033;-83
2022/08/23 05:33:51;;;;;;;4.53;2.28;;;;;;;;;;5035508;28;20033;-83
2022/08/23 05:36:40;;;;;;;2.88;2.00;;;;;;;;;;5027734;28;20041;-83
2022/08/23 05:39:06;;;;;;;3.60;2.20;;;;;;;;;;5035447;28;20037;-83
2022/08/23 05:41:35;;;;;;;3.67;2.30;;;;;;;;;;5036478;28;20474;-83
2022/08/23 05:44:01;;;;;;;3.03;2.20;;;;;;;;;;5035256;28;20040;-83
2022/08/23 05:46:26;;;;;;;3.72;2.10;;;;;;;;;;5019138;28;20103;-83
2022/08/23 05:49:09;;;;;;;4.85;2.50;;;;;;;;;;5035033;28;20037;-82
2022/08/23 05:51:34;;;;;;;4.57;2.70;;;;;;;;;;5036115;28;20033;-83
2022/08/23 05:54:04;;;;;;;5.10;2.45;;;;;;;;;;5034701;28;20034;-83
2022/08/23 05:56:35;;;;;;;2.80;2.22;;;;;;;;;;5017652;28;20075;-83
2022/08/23 05:59:05;;;;;;;7.45;2.50;;;;;;;;;;5035581;28;20248;-83
2022/08/23 06:01:32;;;;;;;4.93;2.42;;;;;;;;;;5034731;28;20037;-83
2022/08/23 06:04:05;;;;;;;4.72;2.40;;;;;;;;;;5034785;28;20120;-83
2022/08/23 06:06:31;;;;;;;6.53;2.38;;;;;;;;;;5034997;28;20486;-83
2022/08/23 06:08:57;;;;;;;3.40;2.10;;;;;;;;;;5034543;28;20124;-83
2022/08/23 06:11:26;;;;;;;3.53;2.22;;;;;;;;;;5033928;28;20132;-83
2022/08/23 06:13:55;;;;;;;2.80;1.92;;;;;;;;;;5034619;28;20037;-84
2022/08/23 06:16:27;;;;;;;3.78;2.10;;;;;;;;;;5034495;28;20398;-83
2022/08/23 06:18:55;;;;;;;4.22;2.22;;;;;;;;;;5034185;28;20116;-83
2022/08/23 06:21:41;;;;;;;6.35;2.50;;;;;;;;;;5034593;28;20080;-83
2022/08/23 06:24:07;;;;;;;3.90;2.60;;;;;;;;;;5035146;28;20029;-85
2022/08/23 06:26:41;;;;;;;4.25;2.45;;;;;;;;;;5034082;28;20038;-84
2022/08/23 06:29:09;;;;;;;3.95;2.55;;;;;;;;;;5034233;28;20029;-84
2022/08/23 06:31:46;;;;;;;5.05;2.35;;;;;;;;;;5034213;28;20052;-84
2022/08/23 06:34:41;;;;;;;4.05;2.40;;;;;;;;;;5033491;28;20033;-83
2022/08/23 06:37:15;;;;;;;6.80;2.80;;;;;;;;;;5035641;28;20069;-82
2022/08/23 06:40:19;;;;;;;6.95;2.88;;;;;;;;;;5010776;28;20041;-85
2022/08/23 06:42:48;;;;;;;4.32;2.70;;;;;;;;;;5034857;28;20033;-85
2022/08/23 06:45:19;;;;;;;3.58;2.58;;;;;;;;;;5034401;28;20036;-85
2022/08/23 06:47:47;;;;;;;3.17;2.67;;;;;;;;;;5034162;28;20064;-85
2022/08/23 06:50:13;;;;;;;4.88;2.72;;;;;;;;;;5034233;28;20036;-85
2022/08/23 06:53:11;;;;;;;4.95;2.88;;;;;;;;;;5034301;28;20061;-85
2022/08/23 06:56:03;;;;;;;6.03;2.72;;;;;;;;;;5031009;28;20375;-85
2022/08/23 06:58:41;;;;;;;3.95;2.78;;;;;;;;;;5034311;28;20029;-86
2022/08/23 07:01:29;;;;;;;4.03;2.90;;;;;;;;;;5033486;28;20029;-86
2022/08/23 07:04:10;;;;;;;5.82;2.90;;;;;;;;;;5012676;28;20498;-86
2022/08/23 07:07:08;;;;;;;4.32;2.60;;;;;;;;;;5015003;28;20113;-86
2022/08/23 07:09:34;;;;;;;3.90;2.80;;;;;;;;;;5014039;28;20060;-87
2022/08/23 07:12:00;;;;;;;5.00;2.70;;;;;;;;;;5014030;28;20116;-83
2022/08/23 07:14:27;;;;;;;4.35;2.53;;;;;;;;;;5013808;28;20536;-85
2022/08/23 07:16:58;;;;;;;5.45;2.85;;;;;;;;;;5014261;28;20617;-85
2022/08/23 07:19:28;;;;;;;3.28;2.65;;;;;;;;;;5014080;28;20168;-86
2022/08/23 07:21:54;;;;;;;3.67;2.50;;;;;;;;;;5015844;28;20034;-87
2022/08/23 07:24:23;;;;;;;5.57;2.58;;;;;;;;;;5017516;28;20084;-85
2022/08/23 07:26:51;;;;;;;4.68;2.30;;;;;;;;;;5016339;28;20032;-86
2022/08/23 07:29:19;;;;;;;4.15;2.67;;;;;;;;;;5014693;28;20049;-85
2022/08/23 07:31:49;;;;;;;3.67;2.30;;;;;;;;;;5013935;28;20479;-85
2022/08/23 07:34:15;;;;;;;3.80;2.50;;;;;;;;;;5014810;28;20259;-86
2022/08/23 07:36:43;;;;;;;3.33;2.20;;;;;;;;;;5016367;28;20041;-85
2022/08/23 07:39:10;;;;;;;2.30;1.90;;;;;;;;;;5022158;28;20022;-83
2022/08/23 07:41:37;;;;;;;5.18;2.30;;;;;;;;;;5020706;28;20029;-85
2022/08/23 07:44:07;;;;;;;4.10;2.15;;;;;;;;;;5020756;28;20087;-84
2022/08/23 07:46:34;;;;;;;3.13;2.17;;;;;;;;;;5021502;28;20029;-84
2022/08/23 07:49:02;;;;;;;3.70;2.22;;;;;;;;;;5025693;28;20116;-85
2022/08/23 07:51:35;;;;;;;3.63;2.20;;;;;;;;;;5027251;28;20029;-84
2022/08/23 07:54:08;;;;;;;4.35;2.05;;;;;;;;;;5026778;28;20034;-84
2022/08/23 07:56:40;;;;;;;3.13;1.95;;;;;;;;;;5027266;28;20033;-85
2022/08/23 07:59:13;;;;;;;4.07;2.00;;;;;;;;;;5028874;28;20089;-85
2022/08/23 08:01:59;;;;;;;3.42;2.00;;;;;;;;;;5020429;28;20045;-85
2022/08/23 08:04:25;;;;;;;3.75;2.10;;;;;;;;;;5027229;28;20026;-85
2022/08/23 08:06:51;;;;;;;3.38;2.03;;;;;;;;;;5027167;28;20419;-85
2022/08/23 08:09:19;;;;;;;7.20;2.30;;;;;;;;;;5027392;28;20121;-83
2022/08/23 08:11:47;;;;;;;2.80;1.88;;;;;;;;;;5027172;28;20085;-85
2022/08/23 08:14:17;;;;;;;3.53;2.00;;;;;;;;;;5026853;28;20055;-84
2022/08/23 08:16:51;;;;;;;2.95;2.17;;;;;;;;;;5027579;28;20400;-85
2022/08/23 08:19:36;;;;;;;3.58;2.08;;;;;;;;;;5027364;28;20038;-85
2022/08/23 08:22:36;;;;;;;3.25;2.10;;;;;;;;;;5011274;28;20033;-85
2022/08/23 08:25:22;;;;;;;6.75;2.33;;;;;;;;;;5028082;28;20050;-85
2022/08/23 08:27:49;;;;;;;2.72;2.10;;;;;;;;;;5027466;28;20029;-85
2022/08/23 08:30:15;;;;;;;7.78;2.38;;;;;;;;;;5027405;28;20518;-85
2022/08/23 08:32:42;;;;;;;3.13;1.92;;;;;;;;;;5027669;28;20033;-85
2022/08/23 08:35:08;;;;;;;6.47;2.17;;;;;;;;;;5027401;28;20113;-85
2022/08/23 08:37:35;;;;;;;2.63;1.90;;;;;;;;;;5027492;28;20022;-85
2022/08/23 08:40:01;;;;;;;4.40;2.10;;;;;;;;;;5027117;28;20037;-85
2022/08/23 08:42:53;;;;;;;6.78;2.20;;;;;;;;;;5027736;28;20534;-85
2022/08/23 08:45:26;;;;;;;2.55;2.00;;;;;;;;;;5000063;28;20052;-85
2022/08/23 08:48:04;;;;;;;3.28;2.30;;;;;;;;;;5027788;28;20034;-85
2022/08/23 08:50:48;;;;;;;3.60;2.35;;;;;;;;;;5012297;28;20040;-85
2022/08/23 08:53:35;;;;;;;3.75;2.00;;;;;;;;;;5010744;28;20049;-85
2022/08/23 08:56:31;;;;;;;3.47;2.00;;;;;;;;;;5028443;28;20038;-85
2022/08/23 08:59:12;;;;;;;2.83;2.38;;;;;;;;;;5027766;28;20042;-85
2022/08/23 09:01:38;;;;;;;3.78;2.40;;;;;;;;;;5028436;28;20388;-85
2022/08/23 09:04:05;;;;;;;4.47;2.30;;;;;;;;;;5026994;28;20038;-86
2022/08/23 09:06:42;;;;;;;5.40;2.40;;;;;;;;;;5027641;28;20066;-86
2022/08/23 09:09:20;;;;;;;2.47;2.10;;;;;;;;;;5027508;28;20053;-86
2022/08/23 09:12:15;;;;;;;4.90;2.20;;;;;;;;;;5027724;28;20038;-85
2022/08/23 09:15:00;;;;;;;2.35;1.90;;;;;;;;;;5026972;28;20041;-85
2022/08/23 09:17:53;;;;;;;4.63;2.30;;;;;;;;;;5021850;28;20068;-86
2022/08/23 09:20:21;;;;;;;4.45;2.20;;;;;;;;;;5019708;28;20120;-86
2022/08/23 09:22:58;;;;;;;5.90;2.25;;;;;;;;;;5019935;28;20045;-86
2022/08/23 09:25:28;;;;;;;4.78;2.28;;;;;;;;;;5004104;28;20101;-86
2022/08/23 09:28:01;;;;;;;4.68;1.73;;;;;;;;;;5022746;28;20057;-86
2022/08/23 09:30:54;;;;;;;5.90;1.90;;;;;;;;;;5023098;28;20495;-86
2022/08/23 09:33:41;;;;;;;5.25;2.10;;;;;;;;;;5023032;28;20072;-86
2022/08/23 09:36:24;;;;;;;3.85;1.80;;;;;;;;;;5007026;28;20080;-86
2022/08/23 09:38:58;;;;;;;5.15;2.00;;;;;;;;;;5007264;28;20458;-84
2022/08/23 09:41:42;;;;;;;3.75;1.80;;;;;;;;;;5023941;28;20037;-86
2022/08/23 09:44:12;;;;;;;3.10;1.75;;;;;;;;;;5022883;28;20083;-86
2022/08/23 09:46:42;;;;;;;3.78;2.00;;;;;;;;;;5023423;28;20041;-86
2022/08/23 09:49:28;;;;;;;4.10;1.73;;;;;;;;;;5022681;28;20030;-86
2022/08/23 09:52:18;;;;;;;3.75;1.80;;;;;;;;;;5023093;28;20060;-85
2022/08/23 09:54:54;;;;;;;3.03;1.70;;;;;;;;;;5022868;28;20030;-86
2022/08/23 09:57:26;;;;;;;3.45;1.77;;;;;;;;;;5021830;28;20088;-86
2022/08/23 09:59:55;;;;;;;3.40;2.13;;;;;;;;;;5022706;28;20034;-86
2022/08/23 10:02:31;;;;;;;3.67;2.00;;;;;;;;;;5022335;28;20041;-86
2022/08/23 10:05:15;;;;;;;5.38;1.85;;;;;;;;;;5022118;28;20406;-86
2022/08/23 10:07:45;;;;;;;4.10;1.70;;;;;;;;;;5022214;28;20030;-86
2022/08/23 10:10:37;;;;;;;3.15;1.60;;;;;;;;;;5006517;28;20041;-85
2022/08/23 10:13:05;;;;;;;3.65;1.60;;;;;;;;;;5022388;28;20064;-85
2022/08/23 10:15:48;;;;;;;4.78;1.58;;;;;;;;;;5021800;28;20030;-85
2022/08/23 10:18:37;;;;;;;4.95;1.90;;;;;;;;;;5022829;28;20041;-86
2022/08/23 10:21:30;;;;;;;2.70;1.52;;;;;;;;;;5006123;28;20038;-86
2022/08/23 10:24:09;;;;;;;5.30;1.73;;;;;;;;;;5022360;28;20140;-86
2022/08/23 10:26:42;;;;;;;3.13;1.80;;;;;;;;;;5023930;28;20042;-86
2022/08/23 10:32:37;;;;;;;2.58;1.40;;;;;;;;;;5022519;28;19913;-86
2022/08/23 10:35:25;;;;;;;4.68;1.60;;;;;;;;;;4927689;29;20131;-86
2022/08/23 10:38:26;;;;;;;4.10;1.88;;;;;;;;;;5021023;28;20108;-86
2022/08/23 10:41:20;;;;;;;6.88;1.85;;;;;;;;;;4974272;28;20046;-86
2022/08/23 10:44:20;;;;;;;2.95;1.55;;;;;;;;;;5022250;28;20046;-85
2022/08/23 10:47:09;;;;;;;4.07;1.70;;;;;;;;;;5022001;28;20037;-86
2022/08/23 10:49:38;;;;;;;5.72;1.77;;;;;;;;;;5022125;28;20029;-86
2022/08/23 10:52:06;;;;;;;5.53;1.80;;;;;;;;;;5024257;28;20038;-86
2022/08/23 10:54:45;;;;;;;2.95;1.60;;;;;;;;;;5021179;28;20054;-86
2022/08/23 10:57:20;;;;;;;3.10;1.63;;;;;;;;;;5022037;28;20056;-86
2022/08/23 10:59:49;;;;;;;5.50;1.50;;;;;;;;;;5022594;28;20033;-86
2022/08/23 11:02:54;;;;;;;4.80;1.58;;;;;;;;;;5022180;28;20034;-86
2022/08/23 11:05:30;;;;;;;5.15;1.77;;;;;;;;;;5022559;28;20030;-86
2022/08/23 11:08:00;;;;;;;3.95;1.85;;;;;;;;;;5022686;28;20065;-85
2022/08/23 11:10:46;;;;;;;3.00;1.70;;;;;;;;;;5022578;28;20038;-86
2022/08/23 11:13:12;;;;;;;9.38;1.80;;;;;;;;;;5022363;28;20045;-86
2022/08/23 11:15:57;;;;;;;3.70;1.70;;;;;;;;;;5021630;28;20022;-86
2022/08/23 11:18:43;;;;;;;3.45;1.70;;;;;;;;;;5007746;28;20045;-88
2022/08/23 11:21:17;;;;;;;4.75;1.80;;;;;;;;;;5007995;28;20026;-86
2022/08/23 11:23:54;;;;;;;7.95;1.90;;;;;;;;;;5021767;28;20026;-86
2022/08/23 11:26:26;;;;;;;4.10;2.00;;;;;;;;;;5021366;28;20398;-86
2022/08/23 11:29:21;;;;;;;4.22;1.70;;;;;;;;;;5021759;28;20036;-86
2022/08/23 11:32:02;;;;;;;5.10;2.17;;;;;;;;;;5022090;28;20041;-86
2022/08/23 11:34:47;;;;;;;3.03;1.55;;;;;;;;;;5021359;28;20034;-86
2022/08/23 11:37:20;;;;;;;3.30;1.60;;;;;;;;;;5021822;28;20044;-88
2022/08/23 11:39:57;;;;;;;2.70;1.88;;;;;;;;;;5005512;28;20033;-86
2022/08/23 11:43:02;;;;;;;3.00;1.60;;;;;;;;;;5022123;28;20072;-86
2022/08/23 11:45:36;;;;;;;3.15;1.60;;;;;;;;;;5021113;28;20117;-87
2022/08/23 11:48:28;;;;;;;3.55;1.45;;;;;;;;;;5021624;28;20037;-88
2022/08/23 11:51:23;;;;;;;3.78;1.67;;;;;;;;;;5022142;28;20068;-88
2022/08/23 11:53:54;;;;;;;3.55;1.60;;;;;;;;;;5023594;28;20097;-87
2022/08/23 11:56:38;;;;;;;3.28;1.70;;;;;;;;;;5023307;28;20485;-88
2022/08/23 11:59:23;;;;;;;3.10;1.50;;;;;;;;;;5022815;28;20025;-87
2022/08/23 12:01:49;;;;;;;2.85;1.40;;;;;;;;;;5022284;28;20121;-88
2022/08/23 12:04:44;;;;;;;3.97;1.60;;;;;;;;;;5022510;28;20030;-87
2022/08/23 12:07:12;;;;;;;3.75;1.80;;;;;;;;;;5024803;28;20034;-88
2022/08/23 12:09:40;;;;;;;4.43;1.70;;;;;;;;;;5025824;28;20052;-89
2022/08/23 12:12:11;;;;;;;4.78;1.80;;;;;;;;;;5022068;28;20088;-88
2022/08/23 12:14:40;;;;;;;4.70;1.50;;;;;;;;;;5023513;28;20163;-88
2022/08/23 12:17:11;;;;;;;3.80;1.83;;;;;;;;;;5022020;28;20057;-87
2022/08/23 12:19:37;;;;;;;2.33;1.48;;;;;;;;;;5023354;28;20577;-87
2022/08/23 12:22:12;;;;;;;4.50;1.70;;;;;;;;;;5023656;28;20045;-87
2022/08/23 12:24:45;;;;;;;5.22;2.00;;;;;;;;;;5023149;28;20033;-88
2022/08/23 12:27:30;;;;;;;3.00;1.67;;;;;;;;;;5022970;28;20057;-87
2022/08/23 12:30:05;;;;;;;3.35;1.50;;;;;;;;;;5021849;28;20041;-87
2022/08/23 12:32:55;;;;;;;2.92;1.50;;;;;;;;;;5024736;28;20034;-87
2022/08/23 12:35:49;;;;;;;4.43;1.90;;;;;;;;;;5021799;28;20110;-85
2022/08/23 12:38:39;;;;;;;3.88;1.65;;;;;;;;;;5022459;28;20053;-88
2022/08/23 12:41:21;;;;;;;3.20;1.55;;;;;;;;;;5021420;28;20041;-88
2022/08/23 12:44:15;;;;;;;4.90;1.70;;;;;;;;;;5022339;28;20045;-87
2022/08/23 12:46:43;;;;;;;5.20;1.92;;;;;;;;;;5020092;28;20399;-87
2022/08/23 12:49:21;;;;;;;4.55;1.80;;;;;;;;;;5021770;28;20038;-87
2022/08/23 12:51:49;;;;;;;5.57;1.60;;;;;;;;;;5021951;28;20041;-86
2022/08/23 12:54:17;;;;;;;2.28;1.50;;;;;;;;;;5020436;28;20064;-87
2022/08/23 12:56:51;;;;;;;2.78;1.60;;;;;;;;;;5021622;28;20046;-88
2022/08/23 12:59:32;;;;;;;4.28;1.75;;;;;;;;;;5021882;28;20065;-86
2022/08/23 13:01:59;;;;;;;2.20;1.50;;;;;;;;;;5025498;28;20093;-85
2022/08/23 13:04:25;;;;;;;3.45;1.60;;;;;;;;;;5025771;28;20037;-85
2022/08/23 13:06:56;;;;;;;3.30;1.70;;;;;;;;;;5025652;28;20052;-86
2022/08/23 13:09:26;;;;;;;2.90;1.60;;;;;;;;;;5025362;28;20038;-86
2022/08/23 13:11:53;;;;;;;4.22;1.70;;;;;;;;;;5025013;28;20038;-87
2022/08/23 13:14:36;;;;;;;2.22;1.67;;;;;;;;;;5025352;28;20034;-85
2022/08/23 13:17:21;;;;;;;4.13;1.60;;;;;;;;;;5025080;28;20415;-87
2022/08/23 13:19:52;;;;;;;2.35;1.50;;;;;;;;;;5025520;28;20108;-87
2022/08/23 13:22:18;;;;;;;1.90;1.60;;;;;;;;;;5024581;28;20056;-86
2022/08/23 13:24:45;;;;;;;2.50;1.50;;;;;;;;;;5025144;28;20469;-86
2022/08/23 13:27:16;;;;;;;2.40;1.60;;;;;;;;;;5025636;28;20053;-87
2022/08/23 13:30:08;;;;;;;2.35;1.65;;;;;;;;;;5026275;28;20032;-86
2022/08/23 13:32:36;;;;;;;3.50;1.80;;;;;;;;;;4995151;28;20054;-86
2022/08/23 13:35:31;;;;;;;3.35;1.70;;;;;;;;;;5025716;28;20037;-86
2022/08/23 13:38:19;;;;;;;3.22;1.50;;;;;;;;;;5024283;28;20044;-86
2022/08/23 13:40:57;;;;;;;2.97;1.60;;;;;;;;;;5025495;28;20030;-87
2022/08/23 13:43:44;;;;;;;2.60;1.50;;;;;;;;;;5026106;28;20064;-86
2022/08/23 13:46:22;;;;;;;2.28;1.70;;;;;;;;;;5024426;28;20038;-87
2022/08/23 13:49:20;;;;;;;4.03;1.85;;;;;;;;;;5024147;28;20029;-87
2022/08/23 13:51:57;;;;;;;2.03;1.50;;;;;;;;;;5024787;28;20033;-87
2022/08/23 13:54:23;;;;;;;4.75;1.50;;;;;;;;;;5025629;28;20064;-87
2022/08/23 13:56:52;;;;;;;2.30;1.40;;;;;;;;;;5024983;28;20093;-87
2022/08/23 13:59:32;;;;;;;4.13;1.50;;;;;;;;;;5024500;28;20121;-85
2022/08/23 14:02:01;;;;;;;2.53;1.70;;;;;;;;;;5024539;28;20042;-85
2022/08/23 14:04:26;;;;;;;2.55;1.70;;;;;;;;;;5024947;28;20021;-87
2022/08/23 14:06:52;;;;;;;2.88;1.42;;;;;;;;;;5028045;28;20028;-88
2022/08/23 14:09:18;;;;;;;2.95;1.60;;;;;;;;;;5027423;28;20037;-86
2022/08/23 14:11:46;;;;;;;1.52;1.40;;;;;;;;;;5028071;28;20061;-87
2022/08/23 14:14:12;;;;;;;3.67;1.50;;;;;;;;;;5027375;28;20096;-86
2022/08/23 14:16:38;;;;;;;3.15;1.60;;;;;;;;;;5027396;28;20042;-86
2022/08/23 14:19:05;;;;;;;2.78;1.52;;;;;;;;;;5028736;28;20102;-87
2022/08/23 14:21:31;;;;;;;3.15;1.48;;;;;;;;;;5028315;28;20068;-88
2022/08/23 14:23:56;;;;;;;4.10;1.48;;;;;;;;;;5026277;28;20049;-87
2022/08/23 14:26:22;;;;;;;8.85;1.67;;;;;;;;;;5027002;28;20045;-87
2022/08/23 14:28:48;;;;;;;2.90;1.42;;;;;;;;;;5026201;28;20037;-85
2022/08/23 14:31:14;;;;;;;3.50;1.80;;;;;;;;;;5023913;28;20053;-86
2022/08/23 14:33:40;;;;;;;2.88;1.50;;;;;;;;;;5022121;28;20029;-85
2022/08/23 14:36:06;;;;;;;4.40;2.30;;;;;;;;;;5023616;28;20060;-86
2022/08/23 14:38:32;;;;;;;2.80;1.60;;;;;;;;;;5025082;28;20554;-83
2022/08/23 14:41:02;;;;;;;2.80;1.60;;;;;;;;;;5025065;28;20065;-82
2022/08/23 14:43:28;;;;;;;1.83;1.48;;;;;;;;;;5021142;28;20033;-85
2022/08/23 14:45:54;;;;;;;4.18;1.65;;;;;;;;;;5019098;28;20505;-82
2022/08/23 14:48:22;;;;;;;4.75;2.78;;;;;;;;;;5021361;28;20042;-82
2022/08/23 14:50:48;;;;;;;4.05;1.67;;;;;;;;;;5023148;28;20046;-82
2022/08/23 14:53:15;;;;;;;3.47;1.60;;;;;;;;;;5022102;28;20048;-81
2022/08/23 14:55:41;;;;;;;3.22;2.35;;;;;;;;;;5021925;28;20042;-87
2022/08/23 14:58:07;;;;;;;2.42;1.60;;;;;;;;;;5023308;28;20041;-86
2022/08/23 15:00:34;;;;;;;4.93;1.63;;;;;;;;;;5025036;28;20030;-86
2022/08/23 15:03:02;;;;;;;2.80;1.50;;;;;;;;;;5023149;28;20037;-85
2022/08/23 15:05:28;;;;;;;1.83;1.48;;;;;;;;;;5007285;28;20026;-84
2022/08/23 15:07:53;;;;;;;7.65;2.20;;;;;;;;;;5024540;28;20049;-85
2022/08/23 15:10:19;;;;;;;2.67;1.70;;;;;;;;;;5023727;28;20041;-86
2022/08/23 15:12:44;;;;;;;2.95;2.13;;;;;;;;;;5023326;28;20108;-86
2022/08/23 15:15:14;;;;;;;10.32;5.90;;;;;;;;;;5024435;28;20037;-86
2022/08/23 15:17:51;;;;;;;5.47;2.20;;;;;;;;;;5025520;28;20482;-84
2022/08/23 15:20:18;;;;;;;5.10;2.63;;;;;;;;;;5042575;28;20101;-84
2022/08/23 15:22:45;;;;;;;3.47;1.50;;;;;;;;;;5027174;28;20479;-84
2022/08/23 15:25:12;;;;;;;2.97;1.48;;;;;;;;;;5022923;28;20034;-84
2022/08/23 15:27:38;;;;;;;2.13;1.52;;;;;;;;;;5023621;28;20038;-83